KRKR

Details ICAO KRKR
Name ROBERT S KERR
Region United States
Timezone America/Chicago (UTC-5.0)
Plans Departing 1
Arriving 5
Stats Elevation 451 ft / 137 m (AMSL)
Location 35.021623° -94.621256°
Runways 1
Magnetic Variation 1.810° E
Sunrise 2018-05-24 11:10:30 UTC / 2018-05-24 06:10:30 Local
Sunset 2018-05-25 01:23:04 UTC / 2018-05-24 20:23:04 Local
Advertisement - Login to hide

Runways

ID Width Length Bearing (true) Bearing (mag) Surface Threshold Offset Overrun Length
18 75 ft / 23 m 4,016 ft / 1,224 m 189.71° 187.90° Asphalt 0 ft / 0 m 0 ft / 0 m
36 75 ft / 23 m 4,016 ft / 1,224 m 9.71° 7.90° Asphalt 0 ft / 0 m 0 ft / 0 m

Map

Weather


0- 5 10 15 20 25 30 35+ Temperature / ° C

Clouds and Precipitation
Forecast for 2018-05-24 06:00 UTC. Updated 2 hours ago

Ground ~20,000 ft ~40,000 ft Winds

METAR

KRKR 240655Z AUTO 00000KT 10SM CLR 19/18 A3008 RMK AO2

TAF

Not found

Frequencies

Recorded 120.62 MHz AWOS 3
Approach 120.90 MHz RAZORBACK APP/DEP
Unicom 122.80 MHz CTAF/UNICOM
Approach 134.52 MHz RAZORBACK APP/DEP
Warning: Do not use this data for real-world aviation or navigation. No guarantee of current accuracy is given.